createdAt,value
2023-02-02T00:02:22.428Z,98476.94
2023-02-02T00:04:49.086Z,98468.41
2023-02-02T00:07:15.840Z,98458.09
2023-02-02T00:09:42.299Z,98458.91
2023-02-02T00:12:09.228Z,98459.66
2023-02-02T00:14:35.728Z,98457.16
2023-02-02T00:17:02.184Z,98457.97
2023-02-02T00:19:30.391Z,98470.63
2023-02-02T00:21:57.332Z,98482.50
2023-02-02T00:24:24.069Z,98484.16
2023-02-02T00:26:53.468Z,98481.53
2023-02-02T00:29:25.617Z,98492.53
2023-02-02T00:31:52.278Z,98498.34
2023-02-02T00:34:19.382Z,98499.94
2023-02-02T00:36:45.972Z,98507.47
2023-02-02T00:39:18.911Z,98502.16
2023-02-02T00:41:46.184Z,98514.75
2023-02-02T00:44:31.812Z,98504.53
2023-02-02T00:46:58.238Z,98504.41
2023-02-02T00:49:24.674Z,98501.09
2023-02-02T00:51:51.148Z,98493.47
2023-02-02T00:54:17.704Z,98492.63
2023-02-02T00:56:44.370Z,98495.13
2023-02-02T00:59:11.058Z,98496.75
2023-02-02T01:01:37.559Z,98495.94
2023-02-02T01:04:03.947Z,98506.09
2023-02-02T01:06:30.367Z,98507.75
2023-02-02T01:08:56.765Z,98510.25
2023-02-02T01:11:23.471Z,98508.56
2023-02-02T01:13:50.004Z,98509.31
2023-02-02T01:16:16.840Z,98508.50
2023-02-02T01:18:44.031Z,98511.88
2023-02-02T01:21:12.718Z,98513.56
2023-02-02T01:23:40.386Z,98522.81
2023-02-02T01:26:11.013Z,98531.28
2023-02-02T01:28:39.085Z,98528.75
2023-02-02T01:31:17.914Z,98534.56
2023-02-02T01:33:45.814Z,98538.78
2023-02-02T01:36:18.829Z,98543.88
2023-02-02T01:38:45.820Z,98549.81
2023-02-02T01:41:15.032Z,98557.47
2023-02-02T01:43:44.432Z,98556.72
2023-02-02T01:46:16.162Z,98550.72
2023-02-02T01:48:46.756Z,98543.88
2023-02-02T01:51:19.372Z,98559.94
2023-02-02T01:53:47.951Z,98550.63
2023-02-02T01:56:24.556Z,98551.38
2023-02-02T01:58:51.237Z,98553.09
2023-02-02T02:01:17.661Z,98550.63
2023-02-02T02:03:44.260Z,98542.97
2023-02-02T02:06:16.991Z,98535.34
2023-02-02T02:08:52.192Z,98532.00
2023-02-02T02:11:22.966Z,98523.53
2023-02-02T02:14:09.694Z,98525.19
2023-02-02T02:16:45.762Z,98521.81
2023-02-02T02:19:37.082Z,98530.22
2023-02-02T02:22:33.286Z,98534.50
2023-02-02T02:25:33.376Z,98543.03
2023-02-02T02:28:24.385Z,98556.63
2023-02-02T02:31:06.189Z,98558.31
2023-02-02T02:33:54.456Z,98559.97
2023-02-02T02:36:36.239Z,98554.00
2023-02-02T02:39:17.895Z,98549.72
2023-02-02T02:41:50.742Z,98555.63
2023-02-02T02:44:20.115Z,98549.66
2023-02-02T02:46:48.027Z,98553.94
2023-02-02T02:49:14.564Z,98555.59
2023-02-02T02:51:49.269Z,98553.09
2023-02-02T02:54:24.205Z,98561.53
2023-02-02T02:57:15.491Z,98555.63
2023-02-02T03:00:05.149Z,98562.38
2023-02-02T03:02:46.970Z,98564.81
2023-02-02T03:05:48.823Z,98564.97
2023-02-02T03:08:20.163Z,98563.97
2023-02-02T03:10:47.303Z,98562.25
2023-02-02T03:13:15.514Z,98561.44
2023-02-02T03:15:44.293Z,98561.41
2023-02-02T03:18:17.519Z,98580.00
2023-02-02T03:20:45.973Z,98573.25
2023-02-02T03:23:13.247Z,98572.44
2023-02-02T03:25:40.285Z,98568.22
2023-02-02T03:28:07.772Z,98569.91
2023-02-02T03:30:35.342Z,98561.50
2023-02-02T03:33:02.019Z,98567.47
2023-02-02T03:35:28.735Z,98567.41
2023-02-02T03:37:56.182Z,98570.78
2023-02-02T03:40:23.097Z,98576.69
2023-02-02T03:42:49.694Z,98566.56
2023-02-02T03:45:16.225Z,98567.50
2023-02-02T03:47:42.755Z,98564.13
2023-02-02T03:50:11.947Z,98563.28
2023-02-02T03:52:38.451Z,98554.00
2023-02-02T03:55:05.653Z,98550.66
2023-02-02T03:57:32.031Z,98562.50
2023-02-02T03:59:58.469Z,98575.16
2023-02-02T04:02:24.901Z,98586.94
2023-02-02T04:04:51.298Z,98580.91
2023-02-02T04:07:17.764Z,98572.53
2023-02-02T04:09:44.266Z,98572.56
2023-02-02T04:12:11.771Z,98570.91
2023-02-02T04:14:38.220Z,98570.91
2023-02-02T04:17:04.682Z,98585.28
2023-02-02T04:19:31.130Z,98597.94
2023-02-02T04:21:57.587Z,98601.28
2023-02-02T04:24:24.017Z,98604.69
2023-02-02T04:26:50.566Z,98594.53
2023-02-02T04:29:17.088Z,98594.53
2023-02-02T04:31:43.589Z,98596.25
2023-02-02T04:34:10.077Z,98608.94
2023-02-02T04:36:36.500Z,98603.88
2023-02-02T04:39:02.916Z,98598.81
2023-02-02T04:41:29.315Z,98604.75
2023-02-02T04:43:55.883Z,98603.88
2023-02-02T04:46:24.637Z,98598.75
2023-02-02T04:48:51.058Z,98602.13
2023-02-02T04:51:18.718Z,98594.53
2023-02-02T04:53:45.846Z,98604.66
2023-02-02T04:56:18.328Z,98608.03
2023-02-02T04:58:45.455Z,98617.34
2023-02-02T05:01:18.019Z,98619.94
2023-02-02T05:03:45.424Z,98616.66
2023-02-02T05:06:13.552Z,98618.38
2023-02-02T05:08:43.352Z,98620.84
2023-02-02T05:11:11.831Z,98623.41
2023-02-02T05:13:38.260Z,98626.75
2023-02-02T05:16:07.571Z,98631.00
2023-02-02T05:18:33.954Z,98628.47
2023-02-02T05:21:01.623Z,98632.72
2023-02-02T05:23:28.034Z,98632.72
2023-02-02T05:25:55.411Z,98633.59
2023-02-02T05:28:22.422Z,98642.06
2023-02-02T05:30:49.098Z,98642.94
2023-02-02T05:33:18.339Z,98640.38
2023-02-02T05:35:45.937Z,98642.06
2023-02-02T05:38:12.376Z,98641.25
2023-02-02T05:40:38.763Z,98648.03
2023-02-02T05:43:05.437Z,98641.25
2023-02-02T05:45:33.060Z,98649.72
2023-02-02T05:47:59.803Z,98643.84
2023-02-02T05:50:26.335Z,98648.91
2023-02-02T05:52:52.937Z,98656.50
2023-02-02T05:55:20.087Z,98644.72
2023-02-02T05:57:46.544Z,98635.44
2023-02-02T06:00:13.542Z,98640.47
2023-02-02T06:02:40.078Z,98628.66
2023-02-02T06:05:07.113Z,98634.69
2023-02-02T06:07:33.540Z,98639.75
2023-02-02T06:09:59.936Z,98642.22
2023-02-02T06:12:26.311Z,98643.91
2023-02-02T06:15:11.686Z,98650.69
2023-02-02T06:17:38.163Z,98650.66
2023-02-02T06:20:05.042Z,98655.72
2023-02-02T06:22:32.569Z,98652.38
2023-02-02T06:24:59.056Z,98657.47
2023-02-02T06:27:25.543Z,98648.16
2023-02-02T06:29:51.929Z,98645.63
2023-02-02T06:32:18.377Z,98651.56
2023-02-02T06:34:44.870Z,98649.13
2023-02-02T06:37:11.359Z,98644.84
2023-02-02T06:39:37.747Z,98648.97
2023-02-02T06:42:19.266Z,98641.41
2023-02-02T06:44:47.512Z,98647.31
2023-02-02T06:47:13.942Z,98651.53
2023-02-02T06:49:40.348Z,98657.44
2023-02-02T06:52:07.663Z,98652.34
2023-02-02T06:54:34.092Z,98661.66
2023-02-02T06:57:02.278Z,98659.13
2023-02-02T06:59:28.637Z,98660.75
2023-02-02T07:01:55.109Z,98648.88
2023-02-02T07:04:21.827Z,98664.06
2023-02-02T07:06:48.509Z,98655.69
2023-02-02T07:09:16.113Z,98659.00
2023-02-02T07:11:45.433Z,98658.16
2023-02-02T07:14:12.277Z,98654.78
2023-02-02T07:16:38.754Z,98656.53
2023-02-02T07:19:05.393Z,98666.72
2023-02-02T07:21:35.942Z,98673.53
2023-02-02T07:24:03.801Z,98680.31
2023-02-02T07:26:30.265Z,98676.19
2023-02-02T07:28:59.679Z,98680.44
2023-02-02T07:31:27.168Z,98677.88
2023-02-02T07:33:54.396Z,98688.09
2023-02-02T07:36:23.756Z,98683.00
2023-02-02T07:38:53.806Z,98681.28
2023-02-02T07:41:20.729Z,98683.06
2023-02-02T07:43:48.313Z,98686.50
2023-02-02T07:46:24.936Z,98689.84
2023-02-02T07:48:54.903Z,98686.50
2023-02-02T07:51:25.602Z,98683.16
2023-02-02T07:53:54.307Z,98689.13
2023-02-02T07:56:23.849Z,98694.19
2023-02-02T07:58:54.093Z,98693.31
2023-02-02T08:01:22.998Z,98690.75
2023-02-02T08:03:50.468Z,98696.69
2023-02-02T08:06:22.855Z,98697.53
2023-02-02T08:08:50.202Z,98689.91
2023-02-02T08:11:19.532Z,98697.50
2023-02-02T08:13:49.437Z,98693.31
2023-02-02T08:16:16.683Z,98689.91
2023-02-02T08:18:43.946Z,98695.78
2023-02-02T08:21:11.157Z,98691.53
2023-02-02T08:23:50.093Z,98693.22
2023-02-02T08:26:25.420Z,98694.94
2023-02-02T08:29:07.867Z,98698.28
2023-02-02T08:31:41.693Z,98698.28
2023-02-02T08:34:08.254Z,98697.50
2023-02-02T08:36:37.475Z,98698.38
2023-02-02T08:39:07.044Z,98700.91
2023-02-02T08:41:33.915Z,98696.66
2023-02-02T08:44:02.586Z,98700.91
2023-02-02T08:46:29.243Z,98700.91
2023-02-02T08:48:55.781Z,98712.78
2023-02-02T08:51:22.202Z,98707.69
2023-02-02T08:53:48.608Z,98703.44
2023-02-02T08:56:18.316Z,98703.53
2023-02-02T08:58:49.213Z,98706.97
2023-02-02T09:01:16.862Z,98700.94
2023-02-02T09:03:44.313Z,98705.94
2023-02-02T09:06:16.304Z,98705.91
2023-02-02T09:08:43.492Z,98707.63
2023-02-02T09:11:18.540Z,98709.31
2023-02-02T09:13:54.100Z,98713.50
2023-02-02T09:16:22.650Z,98708.47
2023-02-02T09:18:48.972Z,98713.56
2023-02-02T09:21:17.659Z,98709.34
2023-02-02T09:23:45.594Z,98707.63
2023-02-02T09:26:17.449Z,98711.03
2023-02-02T09:28:47.088Z,98710.16
2023-02-02T09:31:14.392Z,98716.97
2023-02-02T09:33:42.341Z,98710.25
2023-02-02T09:36:14.791Z,98712.00
2023-02-02T09:38:42.897Z,98715.31
2023-02-02T09:41:32.359Z,98712.75
2023-02-02T09:44:17.239Z,98722.13
2023-02-02T09:47:23.081Z,98725.53
2023-02-02T09:50:03.108Z,98724.69
2023-02-02T09:52:38.961Z,98726.41
2023-02-02T09:55:34.986Z,98724.69
2023-02-02T09:58:12.534Z,98724.72
2023-02-02T10:01:00.153Z,98725.56
2023-02-02T10:03:54.521Z,98729.03
2023-02-02T10:06:38.608Z,98721.47
2023-02-02T10:09:29.596Z,98724.03
2023-02-02T10:12:25.729Z,98722.34
2023-02-02T10:15:17.764Z,98724.94
2023-02-02T10:17:48.672Z,98717.34
2023-02-02T10:20:21.244Z,98725.88
2023-02-02T10:22:48.622Z,98723.31
2023-02-02T10:25:16.886Z,98726.72
2023-02-02T10:27:59.767Z,98720.00
2023-02-02T10:30:39.821Z,98737.00
2023-02-02T10:33:12.545Z,98722.59
2023-02-02T10:35:48.144Z,98719.25
2023-02-02T10:38:37.875Z,98724.34
2023-02-02T10:41:31.609Z,98726.94
2023-02-02T10:44:10.767Z,98724.44
2023-02-02T10:46:42.843Z,98727.84
2023-02-02T10:49:31.199Z,98719.44
2023-02-02T10:52:23.750Z,98713.47
2023-02-02T10:55:16.144Z,98715.19
2023-02-02T10:57:57.894Z,98726.19
2023-02-02T11:00:35.081Z,98709.31
2023-02-02T11:03:04.679Z,98714.41
2023-02-02T11:06:02.201Z,98711.81
2023-02-02T11:08:34.980Z,98713.50
2023-02-02T11:11:12.332Z,98717.72
2023-02-02T11:13:46.596Z,98718.63
2023-02-02T11:16:16.097Z,98711.03
2023-02-02T11:18:44.388Z,98711.84
2023-02-02T11:21:23.181Z,98710.09
2023-02-02T11:24:23.901Z,98716.06
2023-02-02T11:26:57.819Z,98709.28
2023-02-02T11:29:39.659Z,98716.94
2023-02-02T11:32:34.254Z,98711.13
2023-02-02T11:35:29.675Z,98716.97
2023-02-02T11:38:09.565Z,98722.06
2023-02-02T11:40:40.499Z,98716.19
2023-02-02T11:43:24.986Z,98723.00
2023-02-02T11:46:18.681Z,98714.50
2023-02-02T11:49:08.360Z,98706.91
2023-02-02T11:51:35.041Z,98709.50
2023-02-02T11:54:18.547Z,98706.94
2023-02-02T11:56:51.364Z,98708.63
2023-02-02T11:59:36.071Z,98702.00
2023-02-02T12:02:25.004Z,98718.00
2023-02-02T12:04:54.537Z,98712.91
2023-02-02T12:07:30.144Z,98712.88
2023-02-02T12:10:04.757Z,98712.81
2023-02-02T12:12:49.412Z,98711.97
2023-02-02T12:15:28.055Z,98723.03
2023-02-02T12:18:25.434Z,98720.50
2023-02-02T12:21:04.667Z,98706.16
2023-02-02T12:24:14.108Z,98716.25
2023-02-02T12:26:46.399Z,98718.81
2023-02-02T12:29:41.427Z,98725.63
2023-02-02T12:32:45.095Z,98728.19
2023-02-02T12:35:35.480Z,98736.63
2023-02-02T12:38:13.813Z,98729.06
2023-02-02T12:41:01.050Z,98733.28
2023-02-02T12:44:02.822Z,98734.13
2023-02-02T12:47:04.176Z,98740.94
2023-02-02T12:49:33.534Z,98734.13
2023-02-02T12:52:05.972Z,98746.00
2023-02-02T12:54:53.640Z,98746.84
2023-02-02T12:57:47.382Z,98745.19
2023-02-02T13:00:39.606Z,98747.75
2023-02-02T13:03:30.818Z,98744.38
2023-02-02T13:06:16.617Z,98748.59
2023-02-02T13:09:01.554Z,98742.69
2023-02-02T13:11:52.130Z,98757.91
2023-02-02T13:14:30.767Z,98741.72
2023-02-02T13:17:02.627Z,98756.16
2023-02-02T13:20:02.219Z,98774.75
2023-02-02T13:22:41.150Z,98778.22
2023-02-02T13:25:19.671Z,98770.59
2023-02-02T13:27:49.624Z,98775.69
2023-02-02T13:30:36.339Z,98769.84
2023-02-02T13:33:25.931Z,98784.13
2023-02-02T13:36:25.900Z,98786.72
2023-02-02T13:39:03.555Z,98783.31
2023-02-02T13:41:31.418Z,98795.19
2023-02-02T13:44:07.526Z,98796.06
2023-02-02T13:46:52.868Z,98800.41
2023-02-02T13:49:28.993Z,98805.38
2023-02-02T13:52:38.479Z,98807.06
2023-02-02T13:55:51.424Z,98818.91
2023-02-02T13:58:34.084Z,98815.53
2023-02-02T14:01:04.886Z,98819.72
2023-02-02T14:03:41.526Z,98836.75
2023-02-02T14:06:15.331Z,98837.56
2023-02-02T14:09:06.237Z,98836.66
2023-02-02T14:11:35.548Z,98839.19
2023-02-02T14:14:35.157Z,98841.00
2023-02-02T14:17:22.181Z,98853.66
2023-02-02T14:19:57.225Z,98854.41
2023-02-02T14:22:45.302Z,98857.84
2023-02-02T14:25:42.754Z,98856.19
2023-02-02T14:28:12.240Z,98864.72
2023-02-02T14:30:39.810Z,98865.50
2023-02-02T14:33:37.067Z,98874.94
2023-02-02T14:36:05.435Z,98869.78
2023-02-02T14:38:55.703Z,98877.38
2023-02-02T14:42:08.025Z,98876.53
2023-02-02T14:44:37.523Z,98881.66
2023-02-02T14:47:04.212Z,98887.69
2023-02-02T14:49:35.586Z,98891.91
2023-02-02T14:52:05.191Z,98889.28
2023-02-02T14:54:36.144Z,98886.69
2023-02-02T14:57:06.609Z,98897.72
2023-02-02T14:59:35.855Z,98902.00
2023-02-02T15:02:07.164Z,98901.97
2023-02-02T15:04:33.721Z,98903.66
2023-02-02T15:07:24.220Z,98904.59
2023-02-02T15:10:01.120Z,98905.38
2023-02-02T15:12:37.971Z,98912.16
2023-02-02T15:15:20.217Z,98912.94
2023-02-02T15:18:12.948Z,98922.28
2023-02-02T15:20:49.607Z,98919.72
2023-02-02T15:23:27.298Z,98916.25
2023-02-02T15:26:06.663Z,98929.75
2023-02-02T15:28:43.237Z,98933.97
2023-02-02T15:31:29.319Z,98939.91
2023-02-02T15:33:59.537Z,98942.47
2023-02-02T15:36:35.629Z,98944.13
2023-02-02T15:39:10.627Z,98944.09
2023-02-02T15:41:43.189Z,98950.88
2023-02-02T15:44:20.170Z,98956.03
2023-02-02T15:46:48.702Z,98955.88
2023-02-02T15:49:32.772Z,98973.63
2023-02-02T15:52:03.329Z,98969.44
2023-02-02T15:54:37.918Z,98971.03
2023-02-02T15:57:25.984Z,98978.63
2023-02-02T15:59:52.423Z,98981.16
2023-02-02T16:02:40.871Z,98987.94
2023-02-02T16:05:36.684Z,98992.19
2023-02-02T16:08:08.208Z,98997.28
2023-02-02T16:10:35.329Z,99001.47
2023-02-02T16:13:02.447Z,99005.75
2023-02-02T16:15:31.754Z,99009.88
2023-02-02T16:18:07.909Z,99018.31
2023-02-02T16:20:37.156Z,99014.09
2023-02-02T16:23:10.275Z,99027.66
2023-02-02T16:25:48.291Z,99032.75
2023-02-02T16:28:18.346Z,99025.94
2023-02-02T16:30:45.642Z,99036.03
2023-02-02T16:33:40.879Z,99041.94
2023-02-02T16:36:31.865Z,99044.47
2023-02-02T16:39:01.832Z,99055.44
2023-02-02T16:41:29.866Z,99057.16
2023-02-02T16:43:56.324Z,99063.88
2023-02-02T16:46:42.949Z,99068.97
2023-02-02T16:49:18.190Z,99069.00
2023-02-02T16:51:47.271Z,99060.63
2023-02-02T16:54:18.271Z,99063.06
2023-02-02T16:56:47.692Z,99079.09
2023-02-02T16:59:14.053Z,99074.00
2023-02-02T17:01:43.632Z,99085.81
2023-02-02T17:04:24.282Z,99091.69
2023-02-02T17:06:53.389Z,99091.72
2023-02-02T17:09:35.561Z,99098.47
2023-02-02T17:12:33.608Z,99100.19
2023-02-02T17:15:22.647Z,99112.03
2023-02-02T17:17:49.505Z,99107.84
2023-02-02T17:20:19.864Z,99117.91
2023-02-02T17:22:53.252Z,99120.41
2023-02-02T17:25:27.616Z,99119.63
2023-02-02T17:27:55.623Z,99123.06
2023-02-02T17:30:22.301Z,99128.16
2023-02-02T17:32:48.717Z,99132.31
2023-02-02T17:35:26.378Z,99138.22
2023-02-02T17:37:53.830Z,99132.28
2023-02-02T17:40:22.458Z,99142.44
2023-02-02T17:42:51.606Z,99153.44
2023-02-02T17:45:34.171Z,99156.00
2023-02-02T17:48:01.755Z,99155.13
2023-02-02T17:50:29.595Z,99157.69
2023-02-02T17:52:56.447Z,99163.56
2023-02-02T17:55:25.872Z,99161.03
2023-02-02T17:57:53.722Z,99160.25
2023-02-02T18:00:22.867Z,99172.88
2023-02-02T18:02:55.793Z,99174.59
2023-02-02T18:05:23.489Z,99171.97
2023-02-02T18:07:50.169Z,99158.50
2023-02-02T18:10:19.229Z,99164.38
2023-02-02T18:12:45.592Z,99166.06
2023-02-02T18:15:14.597Z,99157.56
2023-02-02T18:17:41.079Z,99155.81
2023-02-02T18:20:08.417Z,99164.22
2023-02-02T18:22:34.874Z,99170.13
2023-02-02T18:25:01.333Z,99178.53
2023-02-02T18:27:29.760Z,99175.16
2023-02-02T18:29:56.222Z,99177.66
2023-02-02T18:32:22.737Z,99162.50
2023-02-02T18:34:54.879Z,99165.91
2023-02-02T18:37:24.018Z,99165.09
2023-02-02T18:39:50.650Z,99163.44
2023-02-02T18:42:17.240Z,99160.91
2023-02-02T18:44:44.859Z,99167.69
2023-02-02T18:47:11.307Z,99161.78
2023-02-02T18:49:37.737Z,99176.13
2023-02-02T18:52:04.271Z,99175.28
2023-02-02T18:54:30.703Z,99177.13
2023-02-02T18:56:57.096Z,99184.75
2023-02-02T18:59:23.539Z,99184.75
2023-02-02T19:01:50.028Z,99186.44
2023-02-02T19:04:16.589Z,99188.97
2023-02-02T19:07:01.773Z,99178.03
2023-02-02T19:09:29.460Z,99173.97
2023-02-02T19:11:56.276Z,99185.06
2023-02-02T19:14:28.139Z,99171.63
2023-02-02T19:17:00.406Z,99174.09
2023-02-02T19:19:30.285Z,99177.41
2023-02-02T19:21:58.870Z,99181.66
2023-02-02T19:24:27.175Z,99178.28
2023-02-02T19:26:54.049Z,99185.94
2023-02-02T19:29:25.692Z,99183.44
2023-02-02T19:32:09.118Z,99194.44
2023-02-02T19:34:35.570Z,99191.13
2023-02-02T19:37:14.025Z,99186.19
2023-02-02T19:39:40.738Z,99187.03
2023-02-02T19:42:10.748Z,99181.13
2023-02-02T19:44:38.891Z,99176.81
2023-02-02T19:47:27.649Z,99180.28
2023-02-02T19:49:54.088Z,99185.31
2023-02-02T19:52:24.467Z,99186.97
2023-02-02T19:54:53.047Z,99182.78
2023-02-02T19:57:21.290Z,99191.22
2023-02-02T19:59:50.879Z,99191.28
2023-02-02T20:02:49.551Z,99195.50
2023-02-02T20:05:23.477Z,99186.94
2023-02-02T20:07:57.931Z,99188.72
2023-02-02T20:10:35.989Z,99181.13
2023-02-02T20:13:12.472Z,99185.38
2023-02-02T20:15:39.406Z,99180.25
2023-02-02T20:18:13.660Z,99181.94
2023-02-02T20:20:43.300Z,99172.69
2023-02-02T20:23:20.536Z,99184.56
2023-02-02T20:25:46.996Z,99181.97
2023-02-02T20:28:32.835Z,99186.22
2023-02-02T20:31:05.254Z,99190.50
2023-02-02T20:33:33.179Z,99189.59
2023-02-02T20:36:02.162Z,99181.97
2023-02-02T20:38:38.458Z,99173.47
2023-02-02T20:41:06.291Z,99174.38
2023-02-02T20:43:32.693Z,99177.84
2023-02-02T20:45:59.240Z,99185.47
2023-02-02T20:48:27.526Z,99181.22
2023-02-02T20:50:53.949Z,99184.56
2023-02-02T20:53:20.461Z,99187.19
2023-02-02T20:55:46.917Z,99193.06
2023-02-02T20:58:13.459Z,99185.47
2023-02-02T21:00:40.439Z,99192.28
2023-02-02T21:03:06.850Z,99193.97
2023-02-02T21:05:33.365Z,99198.31
2023-02-02T21:07:59.790Z,99197.53
2023-02-02T21:10:26.667Z,99189.09
2023-02-02T21:12:53.285Z,99196.84
2023-02-02T21:15:19.719Z,99190.09
2023-02-02T21:17:46.243Z,99191.06
2023-02-02T21:20:14.584Z,99195.41
2023-02-02T21:22:40.982Z,99195.56
2023-02-02T21:25:08.456Z,99201.69
2023-02-02T21:27:35.600Z,99201.84
2023-02-02T21:30:02.284Z,99197.00
2023-02-02T21:32:28.698Z,99194.66
2023-02-02T21:34:55.092Z,99198.31
2023-02-02T21:37:21.500Z,99193.44
2023-02-02T21:39:51.729Z,99191.88
2023-02-02T21:42:21.290Z,99196.28
2023-02-02T21:44:56.298Z,99189.63
2023-02-02T21:47:26.212Z,99188.88
2023-02-02T21:49:55.469Z,99191.50
2023-02-02T21:52:21.875Z,99194.13
2023-02-02T21:54:49.148Z,99190.81
2023-02-02T21:57:21.893Z,99184.09
2023-02-02T21:59:56.248Z,99187.53
2023-02-02T22:02:48.174Z,99183.47
2023-02-02T22:05:22.396Z,99184.31
2023-02-02T22:07:50.520Z,99183.63
2023-02-02T22:10:36.484Z,99190.47
2023-02-02T22:13:15.655Z,99181.31
2023-02-02T22:15:46.037Z,99184.66
2023-02-02T22:18:23.851Z,99186.41
2023-02-02T22:20:51.852Z,99185.69
2023-02-02T22:23:20.652Z,99192.56
2023-02-02T22:25:49.465Z,99183.22
2023-02-02T22:28:28.921Z,99184.88
2023-02-02T22:30:56.586Z,99177.28
2023-02-02T22:33:23.660Z,99184.03
2023-02-02T22:35:50.601Z,99177.28
2023-02-02T22:38:20.275Z,99173.81
2023-02-02T22:40:48.345Z,99175.56
2023-02-02T22:43:16.244Z,99179.00
2023-02-02T22:45:43.371Z,99172.16
2023-02-02T22:48:10.054Z,99168.81
2023-02-02T22:50:36.510Z,99171.44
2023-02-02T22:53:04.422Z,99170.56
2023-02-02T22:55:32.029Z,99171.47
2023-02-02T22:57:58.568Z,99183.38
2023-02-02T23:00:27.874Z,99174.03
2023-02-02T23:02:55.346Z,99178.25
2023-02-02T23:05:23.263Z,99179.09
2023-02-02T23:07:50.270Z,99183.38
2023-02-02T23:10:22.094Z,99180.00
2023-02-02T23:12:49.536Z,99188.50
2023-02-02T23:15:16.550Z,99180.84
2023-02-02T23:17:42.985Z,99185.09
2023-02-02T23:20:12.197Z,99184.28
2023-02-02T23:22:38.794Z,99184.25
2023-02-02T23:25:05.853Z,99188.50
2023-02-02T23:27:32.334Z,99190.22
2023-02-02T23:29:58.733Z,99190.22
2023-02-02T23:32:25.434Z,99187.72
2023-02-02T23:34:51.854Z,99187.72
2023-02-02T23:37:18.631Z,99194.59
2023-02-02T23:39:45.038Z,99187.75
2023-02-02T23:42:11.431Z,99192.00
2023-02-02T23:44:37.819Z,99189.47
2023-02-02T23:47:04.849Z,99197.94
2023-02-02T23:49:32.806Z,99188.69
2023-02-02T23:51:59.765Z,99195.50
2023-02-02T23:54:27.075Z,99203.25
2023-02-02T23:56:53.489Z,99195.59
2023-02-02T23:59:19.894Z,99193.84
